createdAt,value
2022-11-06T00:00:17.033Z,99.5
2022-11-06T00:01:16.496Z,99.5
2022-11-06T00:02:21.253Z,99.5
2022-11-06T00:03:16.904Z,99.5
2022-11-06T00:04:17.431Z,99.5
2022-11-06T00:05:16.884Z,99.5
2022-11-06T00:06:17.330Z,99.6
2022-11-06T00:07:16.793Z,99.6
2022-11-06T00:08:17.219Z,99.5
2022-11-06T00:09:16.649Z,99.5
2022-11-06T00:10:17.126Z,99.5
2022-11-06T00:11:16.597Z,99.5
2022-11-06T00:12:17.416Z,99.5
2022-11-06T00:13:16.864Z,99.5
2022-11-06T00:14:17.332Z,99.5
2022-11-06T00:15:16.819Z,99.5
2022-11-06T00:16:17.293Z,99.4
2022-11-06T00:17:16.755Z,99.4
2022-11-06T00:18:17.224Z,99.4
2022-11-06T00:19:16.671Z,99.4
2022-11-06T00:20:17.099Z,99.4
2022-11-06T00:21:16.536Z,99.4
2022-11-06T00:22:17.351Z,99.4
2022-11-06T00:23:16.825Z,99.4
2022-11-06T00:24:17.258Z,99.4
2022-11-06T00:25:16.719Z,99.5
2022-11-06T00:26:17.219Z,99.5
2022-11-06T00:27:16.711Z,99.5
2022-11-06T00:28:17.181Z,99.5
2022-11-06T00:29:16.634Z,99.5
2022-11-06T00:30:17.099Z,99.5
2022-11-06T00:31:16.609Z,99.5
2022-11-06T00:32:16.873Z,99.5
2022-11-06T00:33:17.346Z,99.5
2022-11-06T00:34:16.795Z,99.5
2022-11-06T00:35:17.237Z,99.5
2022-11-06T00:36:16.711Z,99.5
2022-11-06T00:37:17.172Z,99.5
2022-11-06T00:38:16.615Z,99.5
2022-11-06T00:39:17.077Z,99.5
2022-11-06T00:40:16.547Z,99.5
2022-11-06T00:41:17.046Z,99.6
2022-11-06T00:42:16.606Z,99.6
2022-11-06T00:43:17.075Z,99.6
2022-11-06T00:44:16.546Z,99.5
2022-11-06T00:45:17.022Z,99.5
2022-11-06T00:46:16.483Z,99.5
2022-11-06T00:47:16.926Z,99.5
2022-11-06T00:48:17.396Z,99.5
2022-11-06T00:49:16.824Z,99.6
2022-11-06T00:50:17.248Z,99.6
2022-11-06T00:51:16.686Z,99.6
2022-11-06T00:52:17.188Z,99.6
2022-11-06T00:53:16.633Z,99.6
2022-11-06T00:54:17.109Z,99.6
2022-11-06T00:55:16.591Z,99.6
2022-11-06T00:56:17.057Z,99.6
2022-11-06T00:57:16.557Z,99.6
2022-11-06T00:58:17.061Z,99.6
2022-11-06T00:59:16.887Z,99.6
2022-11-06T01:00:17.358Z,99.7
2022-11-06T01:01:16.974Z,99.7
2022-11-06T01:02:16.789Z,99.6
2022-11-06T01:03:17.456Z,99.5
2022-11-06T01:04:16.911Z,99.5
2022-11-06T01:05:17.336Z,99.6
2022-11-06T01:06:16.799Z,99.6
2022-11-06T01:07:17.223Z,99.5
2022-11-06T01:08:16.689Z,99.5
2022-11-06T01:09:17.178Z,99.6
2022-11-06T01:10:16.690Z,99.6
2022-11-06T01:11:17.185Z,99.6
2022-11-06T01:12:16.937Z,99.6
2022-11-06T01:13:17.459Z,99.6
2022-11-06T01:14:16.956Z,99.6
2022-11-06T01:15:17.443Z,99.6
2022-11-06T01:16:16.907Z,99.6
2022-11-06T01:17:17.368Z,99.5
2022-11-06T01:18:16.794Z,99.5
2022-11-06T01:19:17.216Z,99.5
2022-11-06T01:20:16.681Z,99.5
2022-11-06T01:21:17.111Z,99.5
2022-11-06T01:22:16.857Z,99.5
2022-11-06T01:23:17.356Z,99.5
2022-11-06T01:24:16.943Z,99.5
2022-11-06T01:25:17.429Z,99.5
2022-11-06T01:26:37.113Z,99.5
2022-11-06T01:27:28.077Z,99.5
2022-11-06T01:28:16.576Z,99.5
2022-11-06T01:29:17.081Z,99.5
2022-11-06T01:30:16.554Z,99.5
2022-11-06T01:31:16.986Z,99.4
2022-11-06T01:32:16.862Z,99.5
2022-11-06T01:33:17.356Z,99.5
2022-11-06T01:34:16.806Z,99.5
2022-11-06T01:35:17.229Z,99.5
2022-11-06T01:36:16.672Z,99.5
2022-11-06T01:37:17.117Z,99.5
2022-11-06T01:38:16.620Z,99.5
2022-11-06T01:39:17.069Z,99.5
2022-11-06T01:40:16.554Z,99.5
2022-11-06T01:41:17.034Z,99.4
2022-11-06T01:42:17.341Z,99.3
2022-11-06T01:43:16.800Z,99.3
2022-11-06T01:44:17.276Z,99.3
2022-11-06T01:45:16.727Z,99.3
2022-11-06T01:46:17.160Z,99.3
2022-11-06T01:47:16.580Z,99.3
2022-11-06T01:48:16.995Z,99.4
2022-11-06T01:49:16.764Z,99.3
2022-11-06T01:50:17.215Z,99.3
2022-11-06T01:51:16.642Z,99.4
2022-11-06T01:52:17.410Z,99.4
2022-11-06T01:53:16.867Z,99.3
2022-11-06T01:54:17.340Z,99.4
2022-11-06T01:55:16.822Z,99.4
2022-11-06T01:56:17.304Z,99.4
2022-11-06T01:57:16.771Z,99.4
2022-11-06T01:58:17.238Z,99.5
2022-11-06T01:59:16.711Z,99.5
2022-11-06T02:00:17.141Z,99.5
2022-11-06T02:01:16.648Z,99.4
2022-11-06T02:02:17.484Z,99.3
2022-11-06T02:03:16.986Z,99.3
2022-11-06T02:04:16.412Z,99.3
2022-11-06T02:05:16.848Z,99.3
2022-11-06T02:06:17.274Z,99.4
2022-11-06T02:07:16.770Z,99.4
2022-11-06T02:08:17.286Z,99.3
2022-11-06T02:09:16.782Z,99.3
2022-11-06T02:10:17.241Z,99.4
2022-11-06T02:11:16.689Z,99.4
2022-11-06T02:12:17.198Z,99.5
2022-11-06T02:13:16.684Z,99.5
2022-11-06T02:14:17.114Z,99.5
2022-11-06T02:15:16.534Z,99.5
2022-11-06T02:16:17.001Z,99.5
2022-11-06T02:17:16.460Z,99.5
2022-11-06T02:18:16.904Z,99.5
2022-11-06T02:19:17.346Z,99.5
2022-11-06T02:20:16.787Z,99.5
2022-11-06T02:21:17.240Z,99.5
2022-11-06T02:22:16.893Z,99.5
2022-11-06T02:23:17.401Z,99.5
2022-11-06T02:24:16.886Z,99.5
2022-11-06T02:25:17.354Z,99.5
2022-11-06T02:26:16.813Z,99.5
2022-11-06T02:27:17.280Z,99.5
2022-11-06T02:28:16.771Z,99.5
2022-11-06T02:29:17.233Z,99.6
2022-11-06T02:30:16.715Z,99.7
2022-11-06T02:31:17.159Z,99.7
2022-11-06T02:32:16.716Z,99.6
2022-11-06T02:33:17.150Z,99.6
2022-11-06T02:34:16.621Z,99.6
2022-11-06T02:35:17.064Z,99.5
2022-11-06T02:36:16.535Z,99.4
2022-11-06T02:37:17.007Z,99.3
2022-11-06T02:38:16.820Z,99.2
2022-11-06T02:39:17.288Z,99.2
2022-11-06T02:40:16.770Z,99.2
2022-11-06T02:41:17.230Z,99.2
2022-11-06T02:42:16.551Z,99.2
2022-11-06T02:43:17.038Z,99.2
2022-11-06T02:44:16.479Z,99.2
2022-11-06T02:45:16.961Z,99.1
2022-11-06T02:46:17.406Z,99.1
2022-11-06T02:47:16.847Z,99.1
2022-11-06T02:48:17.302Z,99.1
2022-11-06T02:49:16.744Z,99.1
2022-11-06T02:50:17.196Z,99.1
2022-11-06T02:51:16.681Z,99.0
2022-11-06T02:52:16.683Z,99.1
2022-11-06T02:53:17.149Z,99.1
2022-11-06T02:54:16.628Z,99.0
2022-11-06T02:55:17.117Z,99.1
2022-11-06T02:56:16.602Z,99.1
2022-11-06T02:57:17.076Z,99.1
2022-11-06T02:58:16.571Z,99.1
2022-11-06T02:59:17.038Z,99.1
2022-11-06T03:00:16.518Z,99.1
2022-11-06T03:01:17.143Z,99.1
2022-11-06T03:02:17.241Z,99.4
2022-11-06T03:03:16.711Z,99.5
2022-11-06T03:04:17.180Z,99.5
2022-11-06T03:05:16.625Z,99.7
2022-11-06T03:06:17.084Z,99.7
2022-11-06T03:07:16.568Z,99.7
2022-11-06T03:08:17.160Z,99.8
2022-11-06T03:09:16.632Z,99.8
2022-11-06T03:10:17.112Z,99.8
2022-11-06T03:11:16.573Z,99.7
2022-11-06T03:12:16.850Z,99.7
2022-11-06T03:13:17.603Z,99.5
2022-11-06T03:14:17.080Z,99.5
2022-11-06T03:15:16.541Z,99.5
2022-11-06T03:16:16.964Z,99.4
2022-11-06T03:17:17.419Z,99.5
2022-11-06T03:18:17.383Z,99.4
2022-11-06T03:19:16.922Z,99.5
2022-11-06T03:20:17.398Z,99.5
2022-11-06T03:21:16.869Z,99.5
2022-11-06T03:22:16.580Z,99.5
2022-11-06T03:23:17.062Z,99.5
2022-11-06T03:24:16.528Z,99.5
2022-11-06T03:25:16.990Z,99.5
2022-11-06T03:26:16.447Z,99.5
2022-11-06T03:27:16.924Z,99.5
2022-11-06T03:28:17.440Z,99.5
2022-11-06T03:29:16.865Z,99.4
2022-11-06T03:30:17.348Z,99.3
2022-11-06T03:31:16.784Z,99.4
2022-11-06T03:32:16.490Z,99.5
2022-11-06T03:33:16.964Z,99.5
2022-11-06T03:34:17.401Z,99.5
2022-11-06T03:35:16.858Z,99.6
2022-11-06T03:36:17.344Z,99.7
2022-11-06T03:37:16.847Z,99.8
2022-11-06T03:38:17.347Z,99.8
2022-11-06T03:39:16.812Z,99.8
2022-11-06T03:40:17.278Z,99.9
2022-11-06T03:41:16.731Z,99.9
2022-11-06T03:42:16.913Z,99.9
2022-11-06T03:43:17.345Z,99.9
2022-11-06T03:44:16.783Z,100.0
2022-11-06T03:45:17.213Z,100.0
2022-11-06T03:46:16.635Z,100.0
2022-11-06T03:47:17.091Z,100.0
2022-11-06T03:48:17.034Z,100.0
2022-11-06T03:49:16.544Z,100.0
2022-11-06T03:50:17.049Z,99.9
2022-11-06T03:51:16.556Z,100.0
2022-11-06T03:52:17.217Z,99.9
2022-11-06T03:53:16.975Z,99.8
2022-11-06T03:54:16.474Z,99.8
2022-11-06T03:55:16.954Z,99.8
2022-11-06T03:56:17.439Z,99.8
2022-11-06T03:57:16.879Z,99.8
2022-11-06T03:58:17.343Z,99.8
2022-11-06T03:59:16.939Z,99.8
2022-11-06T04:00:17.092Z,99.8
2022-11-06T04:01:16.564Z,99.8
2022-11-06T04:02:17.615Z,99.9
2022-11-06T04:03:17.118Z,100.0
2022-11-06T04:04:16.624Z,100.0
2022-11-06T04:05:17.125Z,100.0
2022-11-06T04:06:16.597Z,100.0
2022-11-06T04:07:17.055Z,100.0
2022-11-06T04:08:16.921Z,100.0
2022-11-06T04:09:17.394Z,100.0
2022-11-06T04:10:16.884Z,100.0
2022-11-06T04:11:17.348Z,100.0
2022-11-06T04:12:17.031Z,100.0
2022-11-06T04:13:17.027Z,100.0
2022-11-06T04:14:16.467Z,100.0
2022-11-06T04:15:16.942Z,100.0
2022-11-06T04:16:17.375Z,100.0
2022-11-06T04:17:16.831Z,100.0
2022-11-06T04:18:17.280Z,100.0
2022-11-06T04:19:17.159Z,100.0
2022-11-06T04:20:16.663Z,100.0
2022-11-06T04:21:17.147Z,100.0
2022-11-06T04:22:16.971Z,100.0
2022-11-06T04:23:16.499Z,100.0
2022-11-06T04:24:16.982Z,100.0
2022-11-06T04:25:16.455Z,100.0
2022-11-06T04:26:16.917Z,100.0
2022-11-06T04:27:17.372Z,100.0
2022-11-06T04:28:16.797Z,100.0
2022-11-06T04:29:17.275Z,100.0
2022-11-06T04:30:16.714Z,100.0
2022-11-06T04:31:17.148Z,100.0
2022-11-06T04:32:17.051Z,100.0
2022-11-06T04:33:16.505Z,100.0
2022-11-06T04:34:16.927Z,100.0
2022-11-06T04:35:17.379Z,100.0
2022-11-06T04:36:16.870Z,100.0
2022-11-06T04:37:17.350Z,100.0
2022-11-06T04:38:17.217Z,100.0
2022-11-06T04:39:16.670Z,100.0
2022-11-06T04:40:17.141Z,100.0
2022-11-06T04:41:16.604Z,100.0
2022-11-06T04:42:16.622Z,100.0
2022-11-06T04:43:17.072Z,100.0
2022-11-06T04:44:16.499Z,100.0
2022-11-06T04:45:16.981Z,100.0
2022-11-06T04:46:16.413Z,100.0
2022-11-06T04:47:16.844Z,100.0
2022-11-06T04:48:17.274Z,100.0
2022-11-06T04:49:16.716Z,100.0
2022-11-06T04:50:17.145Z,100.0
2022-11-06T04:51:16.594Z,100.0
2022-11-06T04:52:17.289Z,100.0
2022-11-06T04:53:16.740Z,100.0
2022-11-06T04:54:17.220Z,100.0
2022-11-06T04:55:16.704Z,100.0
2022-11-06T04:56:21.722Z,100.0
2022-11-06T04:57:16.498Z,100.0
2022-11-06T04:58:16.950Z,100.0
2022-11-06T04:59:17.442Z,100.0
2022-11-06T05:00:16.887Z,100.0
2022-11-06T05:01:17.430Z,100.0
2022-11-06T05:02:17.473Z,100.0
2022-11-06T05:03:16.944Z,100.0
2022-11-06T05:04:17.389Z,100.0
2022-11-06T05:05:16.850Z,100.0
2022-11-06T05:06:17.341Z,100.0
2022-11-06T05:07:16.850Z,100.0
2022-11-06T05:08:17.298Z,100.0
2022-11-06T05:09:16.758Z,100.0
2022-11-06T05:10:17.236Z,100.0
2022-11-06T05:11:16.700Z,100.0
2022-11-06T05:12:17.326Z,100.0
2022-11-06T05:13:16.760Z,100.0
2022-11-06T05:14:17.181Z,100.0
2022-11-06T05:15:16.620Z,100.0
2022-11-06T05:16:17.052Z,100.0
2022-11-06T05:17:16.475Z,100.0
2022-11-06T05:18:17.186Z,100.0
2022-11-06T05:19:16.673Z,100.0
2022-11-06T05:20:17.167Z,100.0
2022-11-06T05:21:16.651Z,100.0
2022-11-06T05:22:17.104Z,100.0
2022-11-06T05:23:17.107Z,100.0
2022-11-06T05:24:16.625Z,100.0
2022-11-06T05:25:17.097Z,100.0
2022-11-06T05:26:16.576Z,100.0
2022-11-06T05:27:17.001Z,100.0
2022-11-06T05:28:16.725Z,100.0
2022-11-06T05:29:17.202Z,100.0
2022-11-06T05:30:16.667Z,100.0
2022-11-06T05:31:17.103Z,100.0
2022-11-06T05:32:16.682Z,100.0
2022-11-06T05:33:17.130Z,100.0
2022-11-06T05:34:16.594Z,100.0
2022-11-06T05:35:17.061Z,100.0
2022-11-06T05:36:16.567Z,100.0
2022-11-06T05:37:17.012Z,100.0
2022-11-06T05:38:16.993Z,100.0
2022-11-06T05:39:16.538Z,100.0
2022-11-06T05:40:17.026Z,100.0
2022-11-06T05:41:16.500Z,100.0
2022-11-06T05:42:17.200Z,100.0
2022-11-06T05:43:16.624Z,100.0
2022-11-06T05:44:17.089Z,100.0
2022-11-06T05:45:16.524Z,100.0
2022-11-06T05:46:47.470Z,100.0
2022-11-06T05:47:17.426Z,100.0
2022-11-06T05:48:16.855Z,100.0
2022-11-06T05:49:17.347Z,100.0
2022-11-06T05:50:16.837Z,100.0
2022-11-06T05:51:17.280Z,100.0
2022-11-06T05:52:16.968Z,100.0
2022-11-06T05:53:17.424Z,100.0
2022-11-06T05:54:16.906Z,100.0
2022-11-06T05:55:17.369Z,100.0
2022-11-06T05:56:16.809Z,100.0
2022-11-06T05:57:17.253Z,100.0
2022-11-06T05:58:16.914Z,100.0
2022-11-06T05:59:17.370Z,100.0
2022-11-06T06:00:16.812Z,100.0
2022-11-06T06:01:17.243Z,100.0
2022-11-06T06:02:17.436Z,100.0
2022-11-06T06:03:16.976Z,100.0
2022-11-06T06:04:16.442Z,100.0
2022-11-06T06:05:16.912Z,100.0
2022-11-06T06:06:17.429Z,100.0
2022-11-06T06:07:16.901Z,100.0
2022-11-06T06:08:17.393Z,100.0
2022-11-06T06:09:16.887Z,100.0
2022-11-06T06:10:17.339Z,100.0
2022-11-06T06:11:16.782Z,100.0
2022-11-06T06:12:17.381Z,100.0
2022-11-06T06:13:16.808Z,100.0
2022-11-06T06:14:17.231Z,100.0
2022-11-06T06:15:16.687Z,100.0
2022-11-06T06:16:17.115Z,100.0
2022-11-06T06:17:16.543Z,100.0
2022-11-06T06:18:17.146Z,100.0
2022-11-06T06:19:16.616Z,100.0
2022-11-06T06:20:17.318Z,100.0
2022-11-06T06:21:16.792Z,100.0
2022-11-06T06:22:17.362Z,100.0
2022-11-06T06:23:16.849Z,100.0
2022-11-06T06:24:17.778Z,100.0
2022-11-06T06:25:23.300Z,100.0
2022-11-06T06:26:17.318Z,100.0
2022-11-06T06:27:16.739Z,100.0
2022-11-06T06:28:17.187Z,100.0
2022-11-06T06:29:16.659Z,100.0
2022-11-06T06:30:17.094Z,100.0
2022-11-06T06:31:16.586Z,100.0
2022-11-06T06:32:16.428Z,100.0
2022-11-06T06:33:16.914Z,100.0
2022-11-06T06:34:17.401Z,100.0
2022-11-06T06:35:16.873Z,100.0
2022-11-06T06:36:17.373Z,100.0
2022-11-06T06:37:20.522Z,100.0
2022-11-06T06:38:16.990Z,100.0
2022-11-06T06:39:16.466Z,100.0
2022-11-06T06:40:16.900Z,100.0
2022-11-06T06:41:17.329Z,100.0
2022-11-06T06:42:16.714Z,100.0
2022-11-06T06:43:17.133Z,100.0
2022-11-06T06:44:16.573Z,100.0
2022-11-06T06:45:17.054Z,100.0
2022-11-06T06:46:16.500Z,100.0
2022-11-06T06:47:16.978Z,100.0
2022-11-06T06:48:16.914Z,100.0
2022-11-06T06:49:16.492Z,100.0
2022-11-06T06:50:16.964Z,100.0
2022-11-06T06:51:24.252Z,100.0
2022-11-06T06:52:17.054Z,100.0
2022-11-06T06:53:16.502Z,100.0
2022-11-06T06:54:16.937Z,100.0
2022-11-06T06:55:17.379Z,100.0
2022-11-06T06:56:16.861Z,100.0
2022-11-06T06:57:17.291Z,100.0
2022-11-06T06:58:18.344Z,100.0
2022-11-06T06:59:16.794Z,100.0
2022-11-06T07:00:17.278Z,100.0
2022-11-06T07:01:16.963Z,100.0
2022-11-06T07:02:17.236Z,100.0
2022-11-06T07:03:16.752Z,100.0
2022-11-06T07:04:17.212Z,100.0
2022-11-06T07:05:16.721Z,100.0
2022-11-06T07:06:17.231Z,100.0
2022-11-06T07:07:16.663Z,100.0
2022-11-06T07:08:17.249Z,100.0
2022-11-06T07:09:16.676Z,100.0
2022-11-06T07:10:17.104Z,100.0
2022-11-06T07:11:16.550Z,100.0
2022-11-06T07:12:16.432Z,100.0
2022-11-06T07:13:16.966Z,100.0
2022-11-06T07:14:17.481Z,100.0
2022-11-06T07:15:16.981Z,100.0
2022-11-06T07:16:16.485Z,100.0
2022-11-06T07:17:16.988Z,100.0
2022-11-06T07:18:16.760Z,100.0
2022-11-06T07:19:17.204Z,100.0
2022-11-06T07:20:16.694Z,100.0
2022-11-06T07:21:17.151Z,100.0
2022-11-06T07:22:23.398Z,100.0
2022-11-06T07:23:17.180Z,100.0
2022-11-06T07:24:16.625Z,100.0
2022-11-06T07:25:17.096Z,100.0
2022-11-06T07:26:16.529Z,100.0
2022-11-06T07:27:16.956Z,100.0
2022-11-06T07:28:18.258Z,100.0
2022-11-06T07:29:17.029Z,100.0
2022-11-06T07:30:16.494Z,100.0
2022-11-06T07:31:16.992Z,100.0
2022-11-06T07:32:16.728Z,100.0
2022-11-06T07:33:17.202Z,100.0
2022-11-06T07:34:16.668Z,100.0
2022-11-06T07:35:17.126Z,100.0
2022-11-06T07:36:16.591Z,100.0
2022-11-06T07:37:17.017Z,100.0
2022-11-06T07:38:16.834Z,100.0
2022-11-06T07:39:17.425Z,100.0
2022-11-06T07:40:16.870Z,100.0
2022-11-06T07:41:17.320Z,100.0
2022-11-06T07:42:16.667Z,100.0
2022-11-06T07:43:17.138Z,100.0
2022-11-06T07:44:16.611Z,100.0
2022-11-06T07:45:17.081Z,100.0
2022-11-06T07:46:16.542Z,100.0
2022-11-06T07:47:17.017Z,100.0
2022-11-06T07:48:17.228Z,100.0
2022-11-06T07:49:16.782Z,100.0
2022-11-06T07:50:17.249Z,100.0
2022-11-06T07:51:16.689Z,100.0
2022-11-06T07:52:16.472Z,100.0
2022-11-06T07:53:17.011Z,100.0
2022-11-06T07:54:16.455Z,100.0
2022-11-06T07:55:16.897Z,100.0
2022-11-06T07:56:17.340Z,100.0
2022-11-06T07:57:16.797Z,100.0
2022-11-06T07:58:17.263Z,100.0
2022-11-06T07:59:16.733Z,100.0
2022-11-06T08:00:17.219Z,99.9
2022-11-06T08:01:19.291Z,99.8
2022-11-06T08:02:17.667Z,99.9
2022-11-06T08:03:17.158Z,100.0
2022-11-06T08:04:16.642Z,100.0
2022-11-06T08:05:17.078Z,99.9
2022-11-06T08:06:16.518Z,99.9
2022-11-06T08:07:16.975Z,99.9
2022-11-06T08:08:17.452Z,99.9
2022-11-06T08:09:16.891Z,99.9
2022-11-06T08:10:17.332Z,99.9
2022-11-06T08:11:16.755Z,99.9
2022-11-06T08:12:16.518Z,99.9
2022-11-06T08:13:17.000Z,100.0
2022-11-06T08:14:16.443Z,100.0
2022-11-06T08:15:16.912Z,100.0
2022-11-06T08:16:17.392Z,100.0
2022-11-06T08:17:16.870Z,100.0
2022-11-06T08:18:18.050Z,100.0
2022-11-06T08:19:16.691Z,100.0
2022-11-06T08:20:17.129Z,100.0
2022-11-06T08:21:16.552Z,100.0
2022-11-06T08:22:16.441Z,100.0
2022-11-06T08:23:16.913Z,100.0
2022-11-06T08:24:22.333Z,100.0
2022-11-06T08:25:16.811Z,100.0
2022-11-06T08:26:17.270Z,100.0
2022-11-06T08:27:16.722Z,100.0
2022-11-06T08:28:17.240Z,100.0
2022-11-06T08:29:16.714Z,100.0
2022-11-06T08:30:17.328Z,100.0
2022-11-06T08:31:16.770Z,100.0
2022-11-06T08:32:16.487Z,100.0
2022-11-06T08:33:16.940Z,100.0
2022-11-06T08:34:17.429Z,100.0
2022-11-06T08:35:16.867Z,100.0
2022-11-06T08:36:17.301Z,100.0
2022-11-06T08:37:16.737Z,100.0
2022-11-06T08:38:17.574Z,100.0
2022-11-06T08:39:17.037Z,100.0
2022-11-06T08:40:16.490Z,99.8
2022-11-06T08:41:16.928Z,99.8
2022-11-06T08:42:17.395Z,100.0
2022-11-06T08:43:17.413Z,100.0
2022-11-06T08:44:16.967Z,99.9
2022-11-06T08:45:17.441Z,99.8
2022-11-06T08:46:16.931Z,99.8
2022-11-06T08:47:17.394Z,99.7
2022-11-06T08:48:17.362Z,99.7
2022-11-06T08:49:16.814Z,99.7
2022-11-06T08:50:17.281Z,99.6
2022-11-06T08:51:16.717Z,99.3
2022-11-06T08:52:17.013Z,99.4
2022-11-06T08:53:17.692Z,99.4
2022-11-06T08:54:17.397Z,99.4
2022-11-06T08:55:16.836Z,99.3
2022-11-06T08:56:17.324Z,99.3
2022-11-06T08:57:16.810Z,99.3
2022-11-06T08:58:17.299Z,99.4
2022-11-06T08:59:16.750Z,99.3
2022-11-06T09:00:17.219Z,99.2
2022-11-06T09:01:16.830Z,99.3
2022-11-06T09:02:17.404Z,99.3
2022-11-06T09:03:17.556Z,99.3
2022-11-06T09:04:17.186Z,99.2
2022-11-06T09:05:16.608Z,99.2
2022-11-06T09:06:17.072Z,99.2
2022-11-06T09:07:16.520Z,99.2
2022-11-06T09:08:16.952Z,99.0
2022-11-06T09:09:17.410Z,99.0
2022-11-06T09:10:16.868Z,99.1
2022-11-06T09:11:17.323Z,99.1
2022-11-06T09:12:16.488Z,99.0
2022-11-06T09:13:17.767Z,98.9
2022-11-06T09:14:17.329Z,98.9
2022-11-06T09:15:16.804Z,98.7
2022-11-06T09:16:17.266Z,98.7
2022-11-06T09:17:16.741Z,98.6
2022-11-06T09:18:17.217Z,98.5
2022-11-06T09:19:16.659Z,98.6
2022-11-06T09:20:17.139Z,98.5
2022-11-06T09:21:16.563Z,98.5
2022-11-06T09:22:16.649Z,98.8
2022-11-06T09:23:17.606Z,98.8
2022-11-06T09:24:17.120Z,98.7
2022-11-06T09:25:16.586Z,98.6
2022-11-06T09:26:17.055Z,98.7
2022-11-06T09:27:16.524Z,98.7
2022-11-06T09:28:16.979Z,98.5
2022-11-06T09:29:16.557Z,98.5
2022-11-06T09:30:17.082Z,98.7
2022-11-06T09:31:16.557Z,98.7
2022-11-06T09:32:17.411Z,98.4
2022-11-06T09:33:17.462Z,98.2
2022-11-06T09:34:16.999Z,98.2
2022-11-06T09:35:16.454Z,98.2
2022-11-06T09:36:16.898Z,98.0
2022-11-06T09:37:17.321Z,98.0
2022-11-06T09:38:16.763Z,98.0
2022-11-06T09:39:17.210Z,98.0
2022-11-06T09:40:16.632Z,97.8
2022-11-06T09:41:17.107Z,98.0
2022-11-06T09:42:16.886Z,97.8
2022-11-06T09:43:50.656Z,97.8
2022-11-06T09:44:16.951Z,97.6
2022-11-06T09:45:17.424Z,97.5
2022-11-06T09:46:16.903Z,97.3
2022-11-06T09:47:17.392Z,97.5
2022-11-06T09:48:16.847Z,97.5
2022-11-06T09:49:17.297Z,97.7
2022-11-06T09:50:16.728Z,97.8
2022-11-06T09:51:17.657Z,97.5
2022-11-06T09:52:16.928Z,97.6
2022-11-06T09:53:17.361Z,97.2
2022-11-06T09:54:17.256Z,97.3
2022-11-06T09:55:16.801Z,97.7
2022-11-06T09:56:17.273Z,97.5
2022-11-06T09:57:16.733Z,97.8
2022-11-06T09:58:17.423Z,97.8
2022-11-06T09:59:16.887Z,97.7
2022-11-06T10:00:17.374Z,97.6
2022-11-06T10:01:27.210Z,96.8
2022-11-06T10:02:16.776Z,96.7
2022-11-06T10:03:17.356Z,96.5
2022-11-06T10:04:16.878Z,96.3
2022-11-06T10:05:17.337Z,96.7
2022-11-06T10:06:16.768Z,96.8
2022-11-06T10:07:17.205Z,96.6
2022-11-06T10:08:17.109Z,96.7
2022-11-06T10:09:16.573Z,96.4
2022-11-06T10:10:17.033Z,95.5
2022-11-06T10:11:16.533Z,95.8
2022-11-06T10:12:17.235Z,96.7
2022-11-06T10:13:18.206Z,96.5
2022-11-06T10:14:16.672Z,96.8
2022-11-06T10:15:17.176Z,96.7
2022-11-06T10:16:16.753Z,96.1
2022-11-06T10:17:17.200Z,96.0
2022-11-06T10:18:17.243Z,96.0
2022-11-06T10:19:16.808Z,95.9
2022-11-06T10:20:26.702Z,95.6
2022-11-06T10:21:16.551Z,95.6
2022-11-06T10:22:17.390Z,95.8
2022-11-06T10:23:16.819Z,96.2
2022-11-06T10:24:17.288Z,95.8
2022-11-06T10:25:16.759Z,95.8
2022-11-06T10:26:17.243Z,96.2
2022-11-06T10:27:16.727Z,95.9
2022-11-06T10:28:17.261Z,96.1
2022-11-06T10:29:16.730Z,95.9
2022-11-06T10:30:17.208Z,96.0
2022-11-06T10:31:16.694Z,95.5
2022-11-06T10:32:17.052Z,95.7
2022-11-06T10:33:16.509Z,95.6
2022-11-06T10:34:16.988Z,95.0
2022-11-06T10:35:16.413Z,95.3
2022-11-06T10:36:16.841Z,95.1
2022-11-06T10:37:17.455Z,95.3
2022-11-06T10:38:17.515Z,95.3
2022-11-06T10:39:17.115Z,95.8
2022-11-06T10:40:16.584Z,95.4
2022-11-06T10:41:17.091Z,95.5
2022-11-06T10:42:17.399Z,95.3
2022-11-06T10:43:16.862Z,95.4
2022-11-06T10:44:17.361Z,95.1
2022-11-06T10:45:16.830Z,94.7
2022-11-06T10:46:17.286Z,95.0
2022-11-06T10:47:16.721Z,95.2
2022-11-06T10:48:17.250Z,94.8
2022-11-06T10:49:16.690Z,95.0
2022-11-06T10:50:17.137Z,95.2
2022-11-06T10:51:16.582Z,94.7
2022-11-06T10:52:17.378Z,94.3
2022-11-06T10:53:16.811Z,94.2
2022-11-06T10:54:17.279Z,94.6
2022-11-06T10:55:16.817Z,94.8
2022-11-06T10:56:21.519Z,94.7
2022-11-06T10:57:17.608Z,94.4
2022-11-06T10:58:17.628Z,94.5
2022-11-06T10:59:17.206Z,94.2
2022-11-06T11:00:16.702Z,94.3
2022-11-06T11:01:17.273Z,94.3
2022-11-06T11:02:17.145Z,95.0
2022-11-06T11:03:16.631Z,94.3
2022-11-06T11:04:17.094Z,94.7
2022-11-06T11:05:16.558Z,93.8
2022-11-06T11:06:16.981Z,94.2
2022-11-06T11:07:21.940Z,94.5
2022-11-06T11:08:17.433Z,94.6
2022-11-06T11:09:16.912Z,94.5
2022-11-06T11:10:17.427Z,94.7
2022-11-06T11:11:16.933Z,95.1
2022-11-06T11:12:16.680Z,94.9
2022-11-06T11:13:17.178Z,94.9
2022-11-06T11:14:16.695Z,95.0
2022-11-06T11:15:17.156Z,94.7
2022-11-06T11:16:16.598Z,95.2
2022-11-06T11:17:17.039Z,95.4
2022-11-06T11:18:17.358Z,95.5
2022-11-06T11:19:17.006Z,95.2
2022-11-06T11:20:16.442Z,95.2
2022-11-06T11:21:16.884Z,95.3
2022-11-06T11:22:16.516Z,95.2
2022-11-06T11:23:17.227Z,94.9
2022-11-06T11:24:16.757Z,95.0
2022-11-06T11:25:17.214Z,95.2
2022-11-06T11:26:16.684Z,95.3
2022-11-06T11:27:17.158Z,95.4
2022-11-06T11:28:17.005Z,94.7
2022-11-06T11:29:16.566Z,94.7
2022-11-06T11:30:17.019Z,94.5
2022-11-06T11:31:16.452Z,94.3
2022-11-06T11:32:17.087Z,94.5
2022-11-06T11:33:16.514Z,94.6
2022-11-06T11:34:17.018Z,94.4
2022-11-06T11:35:16.476Z,94.2
2022-11-06T11:36:16.902Z,94.0
2022-11-06T11:37:17.368Z,93.8
2022-11-06T11:38:17.483Z,93.9
2022-11-06T11:39:17.237Z,93.6
2022-11-06T11:40:16.703Z,93.5
2022-11-06T11:41:17.169Z,93.3
2022-11-06T11:42:17.096Z,92.8
2022-11-06T11:43:17.059Z,92.9
2022-11-06T11:44:16.524Z,92.9
2022-11-06T11:45:16.987Z,93.0
2022-11-06T11:46:16.418Z,92.8
2022-11-06T11:47:16.958Z,92.8
2022-11-06T11:48:17.692Z,92.7
2022-11-06T11:49:17.156Z,92.5
2022-11-06T11:50:16.652Z,92.5
2022-11-06T11:51:17.113Z,92.7
2022-11-06T11:52:16.646Z,92.8
2022-11-06T11:53:17.148Z,93.2
2022-11-06T11:54:16.631Z,93.2
2022-11-06T11:55:17.091Z,93.6
2022-11-06T11:56:49.972Z,93.3
2022-11-06T11:57:17.090Z,93.7
2022-11-06T11:58:16.763Z,92.8
2022-11-06T11:59:17.238Z,93.0
2022-11-06T12:00:16.690Z,93.2
2022-11-06T12:01:17.151Z,92.9
2022-11-06T12:02:23.762Z,92.9
2022-11-06T12:03:17.013Z,93.0
2022-11-06T12:04:16.484Z,93.1
2022-11-06T12:05:16.946Z,93.0
2022-11-06T12:06:17.369Z,92.5
2022-11-06T12:07:16.890Z,92.7
2022-11-06T12:08:17.386Z,92.7
2022-11-06T12:09:16.865Z,93.1
2022-11-06T12:10:17.400Z,93.5
2022-11-06T12:11:16.873Z,93.2
2022-11-06T12:12:17.405Z,93.1
2022-11-06T12:13:16.890Z,93.2
2022-11-06T12:14:17.378Z,92.8
2022-11-06T12:15:16.815Z,93.2
2022-11-06T12:16:17.256Z,92.9
2022-11-06T12:17:16.724Z,92.8
2022-11-06T12:18:17.505Z,92.9
2022-11-06T12:19:17.001Z,92.5
2022-11-06T12:20:16.504Z,92.9
2022-11-06T12:21:16.969Z,92.3
2022-11-06T12:22:17.052Z,92.3
2022-11-06T12:23:16.543Z,92.5
2022-11-06T12:24:17.020Z,92.4
2022-11-06T12:25:16.462Z,92.5
2022-11-06T12:26:16.936Z,92.2
2022-11-06T12:27:17.445Z,92.2
2022-11-06T12:28:17.144Z,92.0
2022-11-06T12:29:16.675Z,92.0
2022-11-06T12:30:17.110Z,92.0
2022-11-06T12:31:16.534Z,91.9
2022-11-06T12:32:16.714Z,92.0
2022-11-06T12:33:17.179Z,91.8
2022-11-06T12:34:18.003Z,92.3
2022-11-06T12:35:16.454Z,91.5
2022-11-06T12:36:16.940Z,92.3
2022-11-06T12:37:17.418Z,92.1
2022-11-06T12:38:17.677Z,91.9
2022-11-06T12:39:17.385Z,91.7
2022-11-06T12:40:24.651Z,92.0
2022-11-06T12:41:16.554Z,91.8
2022-11-06T12:42:16.758Z,91.7
2022-11-06T12:43:17.235Z,91.2
2022-11-06T12:44:16.660Z,91.6
2022-11-06T12:45:17.086Z,91.2
2022-11-06T12:46:16.514Z,91.3
2022-11-06T12:47:16.948Z,91.5
2022-11-06T12:48:17.520Z,91.3
2022-11-06T12:49:16.961Z,91.7
2022-11-06T12:50:17.444Z,91.1
2022-11-06T12:51:16.962Z,91.5
2022-11-06T12:52:16.915Z,91.0
2022-11-06T12:53:17.407Z,91.5
2022-11-06T12:54:16.909Z,91.7
2022-11-06T12:55:17.425Z,92.2
2022-11-06T12:56:16.903Z,91.3
2022-11-06T12:57:17.416Z,90.8
2022-11-06T12:58:17.367Z,91.0
2022-11-06T12:59:16.846Z,91.0
2022-11-06T13:00:17.317Z,91.1
2022-11-06T13:01:16.841Z,90.9
2022-11-06T13:02:16.768Z,90.5
2022-11-06T13:03:17.368Z,90.7
2022-11-06T13:04:16.799Z,90.2
2022-11-06T13:05:17.684Z,90.3
2022-11-06T13:06:17.147Z,90.5
2022-11-06T13:07:16.604Z,90.0
2022-11-06T13:08:17.817Z,90.2
2022-11-06T13:09:17.440Z,90.5